sensor_id;sensor_type;location;lat;lon;timestamp;P1;durP1;ratioP1;P2;durP2;ratioP2
23617;SDS011;18207;32.078;34.818;2023-02-03T00:01:34;1.67;;;0.90;;
23617;SDS011;18207;32.078;34.818;2023-02-03T00:04:05;0.88;;;0.88;;
23617;SDS011;18207;32.078;34.818;2023-02-03T00:06:36;1.05;;;0.98;;
23617;SDS011;18207;32.078;34.818;2023-02-03T00:09:08;1.63;;;0.75;;
23617;SDS011;18207;32.078;34.818;2023-02-03T00:11:39;0.68;;;0.68;;
23617;SDS011;18207;32.078;34.818;2023-02-03T00:14:09;0.70;;;0.70;;
23617;SDS011;18207;32.078;34.818;2023-02-03T00:16:42;0.82;;;0.75;;
23617;SDS011;18207;32.078;34.818;2023-02-03T00:19:12;0.68;;;0.65;;
23617;SDS011;18207;32.078;34.818;2023-02-03T00:21:43;0.57;;;0.57;;
23617;SDS011;18207;32.078;34.818;2023-02-03T00:24:14;0.75;;;0.70;;
23617;SDS011;18207;32.078;34.818;2023-02-03T00:26:46;0.80;;;0.70;;
23617;SDS011;18207;32.078;34.818;2023-02-03T00:29:16;0.60;;;0.60;;
23617;SDS011;18207;32.078;34.818;2023-02-03T00:31:53;0.50;;;0.50;;
23617;SDS011;18207;32.078;34.818;2023-02-03T00:34:26;1.35;;;0.80;;
23617;SDS011;18207;32.078;34.818;2023-02-03T00:36:58;0.77;;;0.70;;
23617;SDS011;18207;32.078;34.818;2023-02-03T00:39:28;0.38;;;0.38;;
23617;SDS011;18207;32.078;34.818;2023-02-03T00:42:00;0.60;;;0.50;;
23617;SDS011;18207;32.078;34.818;2023-02-03T00:44:33;0.60;;;0.60;;
23617;SDS011;18207;32.078;34.818;2023-02-03T00:47:06;0.35;;;0.35;;
23617;SDS011;18207;32.078;34.818;2023-02-03T00:49:38;0.40;;;0.40;;
23617;SDS011;18207;32.078;34.818;2023-02-03T00:52:08;0.68;;;0.55;;
23617;SDS011;18207;32.078;34.818;2023-02-03T00:54:39;0.30;;;0.30;;
23617;SDS011;18207;32.078;34.818;2023-02-03T00:57:10;0.30;;;0.30;;
23617;SDS011;18207;32.078;34.818;2023-02-03T00:59:40;0.50;;;0.50;;
23617;SDS011;18207;32.078;34.818;2023-02-03T01:02:12;1.10;;;0.70;;
23617;SDS011;18207;32.078;34.818;2023-02-03T01:04:43;0.40;;;0.40;;
23617;SDS011;18207;32.078;34.818;2023-02-03T01:07:14;0.77;;;0.60;;
23617;SDS011;18207;32.078;34.818;2023-02-03T01:09:45;0.47;;;0.47;;
23617;SDS011;18207;32.078;34.818;2023-02-03T01:12:16;0.50;;;0.50;;
23617;SDS011;18207;32.078;34.818;2023-02-03T01:14:47;0.50;;;0.50;;
23617;SDS011;18207;32.078;34.818;2023-02-03T01:17:20;0.60;;;0.60;;
23617;SDS011;18207;32.078;34.818;2023-02-03T01:19:51;0.30;;;0.30;;
23617;SDS011;18207;32.078;34.818;2023-02-03T01:22:22;1.35;;;0.70;;
23617;SDS011;18207;32.078;34.818;2023-02-03T01:24:52;0.55;;;0.55;;
23617;SDS011;18207;32.078;34.818;2023-02-03T01:27:23;0.75;;;0.50;;
23617;SDS011;18207;32.078;34.818;2023-02-03T01:29:54;0.82;;;0.40;;
23617;SDS011;18207;32.078;34.818;2023-02-03T01:32:27;1.23;;;0.70;;
23617;SDS011;18207;32.078;34.818;2023-02-03T01:34:58;1.10;;;0.60;;
23617;SDS011;18207;32.078;34.818;2023-02-03T01:37:28;0.80;;;0.40;;
23617;SDS011;18207;32.078;34.818;2023-02-03T01:39:57;0.38;;;0.32;;
23617;SDS011;18207;32.078;34.818;2023-02-03T01:42:31;0.85;;;0.57;;
23617;SDS011;18207;32.078;34.818;2023-02-03T01:45:02;0.30;;;0.30;;
23617;SDS011;18207;32.078;34.818;2023-02-03T01:47:37;0.55;;;0.40;;
23617;SDS011;18207;32.078;34.818;2023-02-03T01:50:16;0.63;;;0.60;;
23617;SDS011;18207;32.078;34.818;2023-02-03T01:52:52;0.50;;;0.50;;
23617;SDS011;18207;32.078;34.818;2023-02-03T01:55:30;0.75;;;0.60;;
23617;SDS011;18207;32.078;34.818;2023-02-03T01:58:07;0.38;;;0.38;;
23617;SDS011;18207;32.078;34.818;2023-02-03T02:00:43;0.80;;;0.50;;
23617;SDS011;18207;32.078;34.818;2023-02-03T02:03:16;0.43;;;0.43;;
23617;SDS011;18207;32.078;34.818;2023-02-03T02:05:53;0.73;;;0.55;;
23617;SDS011;18207;32.078;34.818;2023-02-03T02:08:30;0.45;;;0.45;;
23617;SDS011;18207;32.078;34.818;2023-02-03T02:11:02;0.35;;;0.35;;
23617;SDS011;18207;32.078;34.818;2023-02-03T02:13:35;0.65;;;0.60;;
23617;SDS011;18207;32.078;34.818;2023-02-03T02:16:07;0.43;;;0.43;;
23617;SDS011;18207;32.078;34.818;2023-02-03T02:22:03;0.20;;;0.20;;
23617;SDS011;18207;32.078;34.818;2023-02-03T02:28:19;0.47;;;0.40;;
23617;SDS011;18207;32.078;34.818;2023-02-03T02:31:40;0.25;;;0.25;;
23617;SDS011;18207;32.078;34.818;2023-02-03T02:34:32;0.32;;;0.32;;
23617;SDS011;18207;32.078;34.818;2023-02-03T02:37:21;0.68;;;0.50;;
23617;SDS011;18207;32.078;34.818;2023-02-03T02:40:07;0.30;;;0.30;;
23617;SDS011;18207;32.078;34.818;2023-02-03T02:42:54;0.63;;;0.50;;
23617;SDS011;18207;32.078;34.818;2023-02-03T02:45:38;0.30;;;0.30;;
23617;SDS011;18207;32.078;34.818;2023-02-03T02:48:19;0.30;;;0.30;;
23617;SDS011;18207;32.078;34.818;2023-02-03T02:51:00;0.57;;;0.50;;
23617;SDS011;18207;32.078;34.818;2023-02-03T02:53:36;0.60;;;0.57;;
23617;SDS011;18207;32.078;34.818;2023-02-03T02:56:12;0.63;;;0.30;;
23617;SDS011;18207;32.078;34.818;2023-02-03T02:58:47;0.75;;;0.32;;
23617;SDS011;18207;32.078;34.818;2023-02-03T03:01:20;0.73;;;0.32;;
23617;SDS011;18207;32.078;34.818;2023-02-03T03:03:53;0.22;;;0.22;;
23617;SDS011;18207;32.078;34.818;2023-02-03T03:06:26;0.52;;;0.45;;
23617;SDS011;18207;32.078;34.818;2023-02-03T03:09:03;1.13;;;0.40;;
23617;SDS011;18207;32.078;34.818;2023-02-03T03:11:40;0.40;;;0.40;;
23617;SDS011;18207;32.078;34.818;2023-02-03T03:14:24;0.38;;;0.32;;
23617;SDS011;18207;32.078;34.818;2023-02-03T03:16:59;0.32;;;0.32;;
23617;SDS011;18207;32.078;34.818;2023-02-03T03:19:37;0.50;;;0.30;;
23617;SDS011;18207;32.078;34.818;2023-02-03T03:22:14;0.40;;;0.40;;
23617;SDS011;18207;32.078;34.818;2023-02-03T03:24:49;0.47;;;0.40;;
23617;SDS011;18207;32.078;34.818;2023-02-03T03:27:28;0.40;;;0.40;;
23617;SDS011;18207;32.078;34.818;2023-02-03T03:30:05;0.43;;;0.30;;
23617;SDS011;18207;32.078;34.818;2023-02-03T03:32:43;0.47;;;0.47;;
23617;SDS011;18207;32.078;34.818;2023-02-03T03:35:16;0.60;;;0.40;;
23617;SDS011;18207;32.078;34.818;2023-02-03T03:37:48;0.38;;;0.38;;
23617;SDS011;18207;32.078;34.818;2023-02-03T03:40:26;0.32;;;0.32;;
23617;SDS011;18207;32.078;34.818;2023-02-03T03:43:06;0.30;;;0.30;;
23617;SDS011;18207;32.078;34.818;2023-02-03T03:45:46;0.35;;;0.30;;
23617;SDS011;18207;32.078;34.818;2023-02-03T03:48:41;0.32;;;0.32;;
23617;SDS011;18207;32.078;34.818;2023-02-03T03:51:22;0.40;;;0.40;;
23617;SDS011;18207;32.078;34.818;2023-02-03T03:53:59;0.47;;;0.35;;
23617;SDS011;18207;32.078;34.818;2023-02-03T03:56:37;0.55;;;0.50;;
23617;SDS011;18207;32.078;34.818;2023-02-03T03:59:15;0.85;;;0.30;;
23617;SDS011;18207;32.078;34.818;2023-02-03T04:01:50;0.63;;;0.63;;
23617;SDS011;18207;32.078;34.818;2023-02-03T04:04:22;0.65;;;0.50;;
23617;SDS011;18207;32.078;34.818;2023-02-03T04:06:57;0.32;;;0.32;;
23617;SDS011;18207;32.078;34.818;2023-02-03T04:09:27;0.40;;;0.40;;
23617;SDS011;18207;32.078;34.818;2023-02-03T04:11:58;0.30;;;0.30;;
23617;SDS011;18207;32.078;34.818;2023-02-03T04:14:32;0.40;;;0.38;;
23617;SDS011;18207;32.078;34.818;2023-02-03T04:17:05;0.40;;;0.40;;
23617;SDS011;18207;32.078;34.818;2023-02-03T04:19:37;0.32;;;0.30;;
23617;SDS011;18207;32.078;34.818;2023-02-03T04:22:13;0.43;;;0.43;;
23617;SDS011;18207;32.078;34.818;2023-02-03T04:24:48;0.20;;;0.20;;
23617;SDS011;18207;32.078;34.818;2023-02-03T04:27:19;1.10;;;0.38;;
23617;SDS011;18207;32.078;34.818;2023-02-03T04:29:49;0.50;;;0.50;;
23617;SDS011;18207;32.078;34.818;2023-02-03T04:32:20;0.55;;;0.40;;
23617;SDS011;18207;32.078;34.818;2023-02-03T04:34:51;0.60;;;0.60;;
23617;SDS011;18207;32.078;34.818;2023-02-03T04:37:23;0.52;;;0.52;;
23617;SDS011;18207;32.078;34.818;2023-02-03T04:39:54;0.30;;;0.30;;
23617;SDS011;18207;32.078;34.818;2023-02-03T04:42:25;0.50;;;0.50;;
23617;SDS011;18207;32.078;34.818;2023-02-03T04:44:56;0.55;;;0.47;;
23617;SDS011;18207;32.078;34.818;2023-02-03T04:47:27;0.47;;;0.47;;
23617;SDS011;18207;32.078;34.818;2023-02-03T04:49:57;0.40;;;0.40;;
23617;SDS011;18207;32.078;34.818;2023-02-03T04:52:30;0.47;;;0.47;;
23617;SDS011;18207;32.078;34.818;2023-02-03T04:55:02;0.40;;;0.40;;
23617;SDS011;18207;32.078;34.818;2023-02-03T04:57:33;0.50;;;0.50;;
23617;SDS011;18207;32.078;34.818;2023-02-03T05:00:04;0.30;;;0.30;;
23617;SDS011;18207;32.078;34.818;2023-02-03T05:02:36;0.52;;;0.40;;
23617;SDS011;18207;32.078;34.818;2023-02-03T05:05:07;0.55;;;0.55;;
23617;SDS011;18207;32.078;34.818;2023-02-03T05:07:39;0.55;;;0.55;;
23617;SDS011;18207;32.078;34.818;2023-02-03T05:10:09;0.50;;;0.50;;
23617;SDS011;18207;32.078;34.818;2023-02-03T05:12:40;0.40;;;0.40;;
23617;SDS011;18207;32.078;34.818;2023-02-03T05:15:11;0.77;;;0.63;;
23617;SDS011;18207;32.078;34.818;2023-02-03T05:17:42;0.73;;;0.50;;
23617;SDS011;18207;32.078;34.818;2023-02-03T05:20:12;0.35;;;0.35;;
23617;SDS011;18207;32.078;34.818;2023-02-03T05:22:45;0.50;;;0.50;;
23617;SDS011;18207;32.078;34.818;2023-02-03T05:25:16;0.55;;;0.55;;
23617;SDS011;18207;32.078;34.818;2023-02-03T05:27:47;0.55;;;0.55;;
23617;SDS011;18207;32.078;34.818;2023-02-03T05:30:18;1.02;;;0.47;;
23617;SDS011;18207;32.078;34.818;2023-02-03T05:32:49;0.50;;;0.40;;
23617;SDS011;18207;32.078;34.818;2023-02-03T05:35:20;0.60;;;0.43;;
23617;SDS011;18207;32.078;34.818;2023-02-03T05:37:52;0.40;;;0.40;;
23617;SDS011;18207;32.078;34.818;2023-02-03T05:40:22;0.60;;;0.45;;
23617;SDS011;18207;32.078;34.818;2023-02-03T05:43:09;0.30;;;0.30;;
23617;SDS011;18207;32.078;34.818;2023-02-03T05:45:40;0.93;;;0.57;;
23617;SDS011;18207;32.078;34.818;2023-02-03T05:48:11;0.40;;;0.40;;
23617;SDS011;18207;32.078;34.818;2023-02-03T05:50:42;0.43;;;0.43;;
23617;SDS011;18207;32.078;34.818;2023-02-03T05:53:15;0.43;;;0.40;;
23617;SDS011;18207;32.078;34.818;2023-02-03T05:55:46;0.90;;;0.43;;
23617;SDS011;18207;32.078;34.818;2023-02-03T05:58:16;0.38;;;0.35;;
23617;SDS011;18207;32.078;34.818;2023-02-03T06:00:47;0.60;;;0.60;;
23617;SDS011;18207;32.078;34.818;2023-02-03T06:03:18;0.40;;;0.30;;
23617;SDS011;18207;32.078;34.818;2023-02-03T06:05:49;0.40;;;0.40;;
23617;SDS011;18207;32.078;34.818;2023-02-03T06:08:22;0.70;;;0.60;;
23617;SDS011;18207;32.078;34.818;2023-02-03T06:10:56;0.30;;;0.30;;
23617;SDS011;18207;32.078;34.818;2023-02-03T06:13:27;0.50;;;0.50;;
23617;SDS011;18207;32.078;34.818;2023-02-03T06:15:58;0.60;;;0.35;;
23617;SDS011;18207;32.078;34.818;2023-02-03T06:18:28;0.65;;;0.45;;
23617;SDS011;18207;32.078;34.818;2023-02-03T06:21:00;0.35;;;0.35;;
23617;SDS011;18207;32.078;34.818;2023-02-03T06:23:32;0.25;;;0.25;;
23617;SDS011;18207;32.078;34.818;2023-02-03T06:26:03;0.30;;;0.30;;
23617;SDS011;18207;32.078;34.818;2023-02-03T06:28:34;0.20;;;0.20;;
23617;SDS011;18207;32.078;34.818;2023-02-03T06:31:05;0.30;;;0.30;;
23617;SDS011;18207;32.078;34.818;2023-02-03T06:33:36;0.40;;;0.40;;
23617;SDS011;18207;32.078;34.818;2023-02-03T06:36:07;0.57;;;0.45;;
23617;SDS011;18207;32.078;34.818;2023-02-03T06:38:40;0.63;;;0.40;;
23617;SDS011;18207;32.078;34.818;2023-02-03T06:41:10;0.40;;;0.40;;
23617;SDS011;18207;32.078;34.818;2023-02-03T06:43:41;0.60;;;0.30;;
23617;SDS011;18207;32.078;34.818;2023-02-03T06:46:12;0.50;;;0.40;;
23617;SDS011;18207;32.078;34.818;2023-02-03T06:48:44;0.32;;;0.32;;
23617;SDS011;18207;32.078;34.818;2023-02-03T06:51:15;0.50;;;0.50;;
23617;SDS011;18207;32.078;34.818;2023-02-03T06:53:47;0.40;;;0.40;;
23617;SDS011;18207;32.078;34.818;2023-02-03T06:56:18;0.40;;;0.40;;
23617;SDS011;18207;32.078;34.818;2023-02-03T06:58:48;0.30;;;0.30;;
23617;SDS011;18207;32.078;34.818;2023-02-03T07:01:19;0.43;;;0.43;;
23617;SDS011;18207;32.078;34.818;2023-02-03T07:03:49;0.40;;;0.40;;
23617;SDS011;18207;32.078;34.818;2023-02-03T07:06:23;0.40;;;0.38;;
23617;SDS011;18207;32.078;34.818;2023-02-03T07:09:00;0.30;;;0.30;;
23617;SDS011;18207;32.078;34.818;2023-02-03T07:11:32;0.30;;;0.30;;
23617;SDS011;18207;32.078;34.818;2023-02-03T07:14:03;0.95;;;0.60;;
23617;SDS011;18207;32.078;34.818;2023-02-03T07:16:34;0.82;;;0.57;;
23617;SDS011;18207;32.078;34.818;2023-02-03T07:19:05;0.40;;;0.40;;
23617;SDS011;18207;32.078;34.818;2023-02-03T07:21:35;0.80;;;0.70;;
23617;SDS011;18207;32.078;34.818;2023-02-03T07:24:08;0.40;;;0.40;;
23617;SDS011;18207;32.078;34.818;2023-02-03T07:26:39;0.57;;;0.55;;
23617;SDS011;18207;32.078;34.818;2023-02-03T07:29:10;0.55;;;0.52;;
23617;SDS011;18207;32.078;34.818;2023-02-03T07:31:40;0.50;;;0.50;;
23617;SDS011;18207;32.078;34.818;2023-02-03T07:34:11;0.90;;;0.68;;
23617;SDS011;18207;32.078;34.818;2023-02-03T07:36:42;0.55;;;0.55;;
23617;SDS011;18207;32.078;34.818;2023-02-03T07:39:14;0.65;;;0.65;;
23617;SDS011;18207;32.078;34.818;2023-02-03T07:41:44;0.47;;;0.47;;
23617;SDS011;18207;32.078;34.818;2023-02-03T07:44:14;0.57;;;0.57;;
23617;SDS011;18207;32.078;34.818;2023-02-03T07:46:58;0.63;;;0.63;;
23617;SDS011;18207;32.078;34.818;2023-02-03T07:49:32;0.52;;;0.52;;
23617;SDS011;18207;32.078;34.818;2023-02-03T07:52:02;0.60;;;0.60;;
23617;SDS011;18207;32.078;34.818;2023-02-03T07:54:34;0.68;;;0.60;;
23617;SDS011;18207;32.078;34.818;2023-02-03T07:57:06;0.80;;;0.60;;
23617;SDS011;18207;32.078;34.818;2023-02-03T07:59:36;0.50;;;0.50;;
23617;SDS011;18207;32.078;34.818;2023-02-03T08:02:07;0.75;;;0.60;;
23617;SDS011;18207;32.078;34.818;2023-02-03T08:04:38;0.32;;;0.32;;
23617;SDS011;18207;32.078;34.818;2023-02-03T08:07:09;0.45;;;0.45;;
23617;SDS011;18207;32.078;34.818;2023-02-03T08:09:42;0.40;;;0.30;;
23617;SDS011;18207;32.078;34.818;2023-02-03T08:12:12;0.35;;;0.35;;
23617;SDS011;18207;32.078;34.818;2023-02-03T08:14:43;0.88;;;0.50;;
23617;SDS011;18207;32.078;34.818;2023-02-03T08:17:14;0.75;;;0.52;;
23617;SDS011;18207;32.078;34.818;2023-02-03T08:19:44;0.55;;;0.55;;
23617;SDS011;18207;32.078;34.818;2023-02-03T08:22:23;0.50;;;0.50;;
23617;SDS011;18207;32.078;34.818;2023-02-03T08:24:57;0.57;;;0.57;;
23617;SDS011;18207;32.078;34.818;2023-02-03T08:27:30;0.70;;;0.70;;
23617;SDS011;18207;32.078;34.818;2023-02-03T08:30:00;0.50;;;0.50;;
23617;SDS011;18207;32.078;34.818;2023-02-03T08:32:31;0.70;;;0.57;;
23617;SDS011;18207;32.078;34.818;2023-02-03T08:35:02;0.70;;;0.70;;
23617;SDS011;18207;32.078;34.818;2023-02-03T08:37:51;0.40;;;0.40;;
23617;SDS011;18207;32.078;34.818;2023-02-03T08:40:24;0.60;;;0.57;;
23617;SDS011;18207;32.078;34.818;2023-02-03T08:42:55;0.82;;;0.60;;
23617;SDS011;18207;32.078;34.818;2023-02-03T08:45:34;0.98;;;0.88;;
23617;SDS011;18207;32.078;34.818;2023-02-03T08:48:04;0.70;;;0.70;;
23617;SDS011;18207;32.078;34.818;2023-02-03T08:50:35;0.95;;;0.70;;
23617;SDS011;18207;32.078;34.818;2023-02-03T08:53:06;0.82;;;0.52;;
23617;SDS011;18207;32.078;34.818;2023-02-03T08:55:39;0.57;;;0.50;;
23617;SDS011;18207;32.078;34.818;2023-02-03T08:58:11;0.47;;;0.47;;
23617;SDS011;18207;32.078;34.818;2023-02-03T09:00:41;0.50;;;0.50;;
23617;SDS011;18207;32.078;34.818;2023-02-03T09:03:15;0.60;;;0.60;;
23617;SDS011;18207;32.078;34.818;2023-02-03T09:05:46;0.57;;;0.52;;
23617;SDS011;18207;32.078;34.818;2023-02-03T09:08:17;1.17;;;0.70;;
23617;SDS011;18207;32.078;34.818;2023-02-03T09:10:49;0.57;;;0.50;;
23617;SDS011;18207;32.078;34.818;2023-02-03T09:13:20;0.52;;;0.52;;
23617;SDS011;18207;32.078;34.818;2023-02-03T09:15:53;0.55;;;0.55;;
23617;SDS011;18207;32.078;34.818;2023-02-03T09:18:33;0.60;;;0.38;;
23617;SDS011;18207;32.078;34.818;2023-02-03T09:21:04;0.82;;;0.47;;
23617;SDS011;18207;32.078;34.818;2023-02-03T09:23:46;0.45;;;0.30;;
23617;SDS011;18207;32.078;34.818;2023-02-03T09:26:20;0.60;;;0.40;;
23617;SDS011;18207;32.078;34.818;2023-02-03T09:28:51;0.50;;;0.50;;
23617;SDS011;18207;32.078;34.818;2023-02-03T09:31:22;0.68;;;0.60;;
23617;SDS011;18207;32.078;34.818;2023-02-03T09:33:52;0.70;;;0.70;;
23617;SDS011;18207;32.078;34.818;2023-02-03T09:36:22;0.77;;;0.75;;
23617;SDS011;18207;32.078;34.818;2023-02-03T09:38:53;1.33;;;1.00;;
23617;SDS011;18207;32.078;34.818;2023-02-03T09:41:32;1.17;;;1.05;;
23617;SDS011;18207;32.078;34.818;2023-02-03T09:44:28;0.82;;;0.82;;
23617;SDS011;18207;32.078;34.818;2023-02-03T09:47:13;1.10;;;0.90;;
23617;SDS011;18207;32.078;34.818;2023-02-03T09:49:51;0.70;;;0.70;;
23617;SDS011;18207;32.078;34.818;2023-02-03T09:52:26;0.65;;;0.65;;
23617;SDS011;18207;32.078;34.818;2023-02-03T09:55:02;0.70;;;0.70;;
23617;SDS011;18207;32.078;34.818;2023-02-03T09:57:43;0.50;;;0.40;;
23617;SDS011;18207;32.078;34.818;2023-02-03T10:00:23;1.17;;;0.55;;
23617;SDS011;18207;32.078;34.818;2023-02-03T10:03:03;0.60;;;0.60;;
23617;SDS011;18207;32.078;34.818;2023-02-03T10:05:51;0.47;;;0.47;;
23617;SDS011;18207;32.078;34.818;2023-02-03T10:08:48;0.40;;;0.40;;
23617;SDS011;18207;32.078;34.818;2023-02-03T10:11:42;0.52;;;0.50;;
23617;SDS011;18207;32.078;34.818;2023-02-03T10:14:43;0.30;;;0.30;;
23617;SDS011;18207;32.078;34.818;2023-02-03T10:17:39;0.70;;;0.50;;
23617;SDS011;18207;32.078;34.818;2023-02-03T10:20:17;0.47;;;0.40;;
23617;SDS011;18207;32.078;34.818;2023-02-03T10:22:54;0.30;;;0.30;;
23617;SDS011;18207;32.078;34.818;2023-02-03T10:25:30;0.50;;;0.40;;
23617;SDS011;18207;32.078;34.818;2023-02-03T10:28:09;0.50;;;0.50;;
23617;SDS011;18207;32.078;34.818;2023-02-03T10:30:51;0.20;;;0.20;;
23617;SDS011;18207;32.078;34.818;2023-02-03T10:33:26;0.20;;;0.20;;
23617;SDS011;18207;32.078;34.818;2023-02-03T10:35:59;0.28;;;0.25;;
23617;SDS011;18207;32.078;34.818;2023-02-03T10:38:42;0.45;;;0.45;;
23617;SDS011;18207;32.078;34.818;2023-02-03T10:41:24;0.20;;;0.20;;
23617;SDS011;18207;32.078;34.818;2023-02-03T10:44:03;0.55;;;0.55;;
23617;SDS011;18207;32.078;34.818;2023-02-03T10:46:42;0.63;;;0.55;;
23617;SDS011;18207;32.078;34.818;2023-02-03T10:49:13;0.57;;;0.40;;
23617;SDS011;18207;32.078;34.818;2023-02-03T10:51:47;0.30;;;0.30;;
23617;SDS011;18207;32.078;34.818;2023-02-03T10:54:29;1.17;;;0.40;;
23617;SDS011;18207;32.078;34.818;2023-02-03T10:57:02;0.63;;;0.40;;
23617;SDS011;18207;32.078;34.818;2023-02-03T10:59:40;0.40;;;0.40;;
23617;SDS011;18207;32.078;34.818;2023-02-03T11:02:22;0.45;;;0.40;;
23617;SDS011;18207;32.078;34.818;2023-02-03T11:05:09;0.45;;;0.45;;
23617;SDS011;18207;32.078;34.818;2023-02-03T11:07:48;0.70;;;0.57;;
23617;SDS011;18207;32.078;34.818;2023-02-03T11:10:29;1.38;;;0.50;;
23617;SDS011;18207;32.078;34.818;2023-02-03T11:13:15;0.43;;;0.40;;
23617;SDS011;18207;32.078;34.818;2023-02-03T11:15:52;0.40;;;0.40;;
23617;SDS011;18207;32.078;34.818;2023-02-03T11:18:50;0.45;;;0.45;;
23617;SDS011;18207;32.078;34.818;2023-02-03T11:21:25;0.85;;;0.85;;
23617;SDS011;18207;32.078;34.818;2023-02-03T11:24:00;0.70;;;0.70;;
23617;SDS011;18207;32.078;34.818;2023-02-03T11:26:39;0.52;;;0.52;;
23617;SDS011;18207;32.078;34.818;2023-02-03T11:29:16;0.70;;;0.70;;
23617;SDS011;18207;32.078;34.818;2023-02-03T11:31:51;0.70;;;0.70;;
23617;SDS011;18207;32.078;34.818;2023-02-03T11:34:26;0.70;;;0.70;;
23617;SDS011;18207;32.078;34.818;2023-02-03T11:37:08;0.70;;;0.70;;
23617;SDS011;18207;32.078;34.818;2023-02-03T11:40:16;0.60;;;0.60;;
23617;SDS011;18207;32.078;34.818;2023-02-03T11:43:00;0.80;;;0.80;;
23617;SDS011;18207;32.078;34.818;2023-02-03T11:45:42;0.68;;;0.68;;
23617;SDS011;18207;32.078;34.818;2023-02-03T11:48:18;0.60;;;0.60;;
23617;SDS011;18207;32.078;34.818;2023-02-03T11:51:02;1.02;;;0.60;;
23617;SDS011;18207;32.078;34.818;2023-02-03T11:53:53;0.82;;;0.52;;
23617;SDS011;18207;32.078;34.818;2023-02-03T11:56:49;1.40;;;0.60;;
23617;SDS011;18207;32.078;34.818;2023-02-03T11:59:39;0.60;;;0.60;;
23617;SDS011;18207;32.078;34.818;2023-02-03T12:02:56;0.63;;;0.50;;
23617;SDS011;18207;32.078;34.818;2023-02-03T12:09:32;0.68;;;0.52;;
23617;SDS011;18207;32.078;34.818;2023-02-03T12:12:23;0.55;;;0.55;;
23617;SDS011;18207;32.078;34.818;2023-02-03T12:15:20;0.40;;;0.40;;
23617;SDS011;18207;32.078;34.818;2023-02-03T12:18:20;0.40;;;0.40;;
23617;SDS011;18207;32.078;34.818;2023-02-03T12:21:22;0.30;;;0.30;;
23617;SDS011;18207;32.078;34.818;2023-02-03T12:24:20;0.38;;;0.38;;
23617;SDS011;18207;32.078;34.818;2023-02-03T12:27:10;0.35;;;0.35;;
23617;SDS011;18207;32.078;34.818;2023-02-03T12:30:00;0.35;;;0.35;;
23617;SDS011;18207;32.078;34.818;2023-02-03T12:32:42;0.47;;;0.47;;
23617;SDS011;18207;32.078;34.818;2023-02-03T12:35:19;0.35;;;0.35;;
23617;SDS011;18207;32.078;34.818;2023-02-03T12:38:00;0.55;;;0.40;;
23617;SDS011;18207;32.078;34.818;2023-02-03T12:40:41;0.50;;;0.50;;
23617;SDS011;18207;32.078;34.818;2023-02-03T12:43:20;0.20;;;0.20;;
23617;SDS011;18207;32.078;34.818;2023-02-03T12:46:04;0.30;;;0.30;;
23617;SDS011;18207;32.078;34.818;2023-02-03T12:48:47;0.50;;;0.40;;
23617;SDS011;18207;32.078;34.818;2023-02-03T12:51:28;0.30;;;0.30;;
23617;SDS011;18207;32.078;34.818;2023-02-03T12:54:12;0.45;;;0.45;;
23617;SDS011;18207;32.078;34.818;2023-02-03T12:57:04;0.57;;;0.30;;
23617;SDS011;18207;32.078;34.818;2023-02-03T12:59:53;0.45;;;0.30;;
23617;SDS011;18207;32.078;34.818;2023-02-03T13:02:47;0.40;;;0.40;;
23617;SDS011;18207;32.078;34.818;2023-02-03T13:05:42;0.38;;;0.30;;
23617;SDS011;18207;32.078;34.818;2023-02-03T13:08:25;0.32;;;0.30;;
23617;SDS011;18207;32.078;34.818;2023-02-03T13:11:09;0.38;;;0.38;;
23617;SDS011;18207;32.078;34.818;2023-02-03T13:13:49;0.30;;;0.30;;
23617;SDS011;18207;32.078;34.818;2023-02-03T13:16:28;0.40;;;0.35;;
23617;SDS011;18207;32.078;34.818;2023-02-03T13:19:05;0.70;;;0.20;;
23617;SDS011;18207;32.078;34.818;2023-02-03T13:21:46;0.10;;;0.10;;
23617;SDS011;18207;32.078;34.818;2023-02-03T13:24:17;0.30;;;0.20;;
23617;SDS011;18207;32.078;34.818;2023-02-03T13:30:03;1.35;;;0.25;;
23617;SDS011;18207;32.078;34.818;2023-02-03T13:39:31;0.35;;;0.30;;
23617;SDS011;18207;32.078;34.818;2023-02-03T13:45:07;0.40;;;0.30;;
23617;SDS011;18207;32.078;34.818;2023-02-03T13:47:51;0.20;;;0.20;;
23617;SDS011;18207;32.078;34.818;2023-02-03T13:50:26;0.35;;;0.30;;
23617;SDS011;18207;32.078;34.818;2023-02-03T13:52:59;0.52;;;0.20;;
23617;SDS011;18207;32.078;34.818;2023-02-03T13:55:36;0.30;;;0.30;;
23617;SDS011;18207;32.078;34.818;2023-02-03T13:58:20;0.35;;;0.35;;
23617;SDS011;18207;32.078;34.818;2023-02-03T14:00:58;0.20;;;0.20;;
23617;SDS011;18207;32.078;34.818;2023-02-03T14:03:49;0.17;;;0.17;;
23617;SDS011;18207;32.078;34.818;2023-02-03T14:09:38;0.22;;;0.20;;
23617;SDS011;18207;32.078;34.818;2023-02-03T14:15:34;0.15;;;0.15;;
23617;SDS011;18207;32.078;34.818;2023-02-03T14:23:55;0.30;;;0.20;;
23617;SDS011;18207;32.078;34.818;2023-02-03T14:26:37;0.20;;;0.20;;
23617;SDS011;18207;32.078;34.818;2023-02-03T14:29:23;0.60;;;0.40;;
23617;SDS011;18207;32.078;34.818;2023-02-03T14:31:58;0.20;;;0.20;;
23617;SDS011;18207;32.078;34.818;2023-02-03T14:34:31;0.30;;;0.30;;
23617;SDS011;18207;32.078;34.818;2023-02-03T14:37:10;0.22;;;0.22;;
23617;SDS011;18207;32.078;34.818;2023-02-03T14:40:02;0.17;;;0.13;;
23617;SDS011;18207;32.078;34.818;2023-02-03T14:42:54;0.25;;;0.25;;
23617;SDS011;18207;32.078;34.818;2023-02-03T14:46:03;0.10;;;0.10;;
23617;SDS011;18207;32.078;34.818;2023-02-03T14:49:16;0.50;;;0.38;;
23617;SDS011;18207;32.078;34.818;2023-02-03T14:55:28;0.10;;;0.10;;
23617;SDS011;18207;32.078;34.818;2023-02-03T14:58:18;0.20;;;0.20;;
23617;SDS011;18207;32.078;34.818;2023-02-03T15:00:59;0.20;;;0.20;;
23617;SDS011;18207;32.078;34.818;2023-02-03T15:03:34;0.50;;;0.25;;
23617;SDS011;18207;32.078;34.818;2023-02-03T15:06:25;0.52;;;0.35;;
23617;SDS011;18207;32.078;34.818;2023-02-03T15:09:12;0.25;;;0.25;;
23617;SDS011;18207;32.078;34.818;2023-02-03T15:11:57;0.20;;;0.20;;
23617;SDS011;18207;32.078;34.818;2023-02-03T15:14:28;0.30;;;0.30;;
23617;SDS011;18207;32.078;34.818;2023-02-03T15:16:59;0.20;;;0.20;;
23617;SDS011;18207;32.078;34.818;2023-02-03T15:19:31;0.40;;;0.38;;
23617;SDS011;18207;32.078;34.818;2023-02-03T15:22:19;0.30;;;0.30;;
23617;SDS011;18207;32.078;34.818;2023-02-03T15:24:51;0.30;;;0.30;;
23617;SDS011;18207;32.078;34.818;2023-02-03T15:27:26;0.45;;;0.40;;
23617;SDS011;18207;32.078;34.818;2023-02-03T15:30:12;0.20;;;0.20;;
23617;SDS011;18207;32.078;34.818;2023-02-03T15:32:46;0.40;;;0.40;;
23617;SDS011;18207;32.078;34.818;2023-02-03T15:35:29;0.40;;;0.38;;
23617;SDS011;18207;32.078;34.818;2023-02-03T15:38:07;0.40;;;0.40;;
23617;SDS011;18207;32.078;34.818;2023-02-03T15:40:46;0.30;;;0.28;;
23617;SDS011;18207;32.078;34.818;2023-02-03T15:43:26;0.57;;;0.38;;
23617;SDS011;18207;32.078;34.818;2023-02-03T15:46:04;0.50;;;0.50;;
23617;SDS011;18207;32.078;34.818;2023-02-03T15:48:45;0.57;;;0.57;;
23617;SDS011;18207;32.078;34.818;2023-02-03T15:51:23;0.63;;;0.60;;
23617;SDS011;18207;32.078;34.818;2023-02-03T15:54:02;0.45;;;0.40;;
23617;SDS011;18207;32.078;34.818;2023-02-03T15:56:41;0.43;;;0.43;;
23617;SDS011;18207;32.078;34.818;2023-02-03T15:59:21;0.50;;;0.50;;
23617;SDS011;18207;32.078;34.818;2023-02-03T16:01:59;0.50;;;0.50;;
23617;SDS011;18207;32.078;34.818;2023-02-03T16:04:41;0.82;;;0.75;;
23617;SDS011;18207;32.078;34.818;2023-02-03T16:07:15;1.00;;;1.00;;
23617;SDS011;18207;32.078;34.818;2023-02-03T16:09:53;0.90;;;0.90;;